Archiv

Tageswerte

Alle gespeicherten Messwerte deiner Wetterstation.

Ausgewählter Tag18.01.2024
← Vortag Nächster Tag → Heute
Messpunkte286
Max Temperatur0,4 °C
Min Temperatur-3,3 °C
Ø Temperatur-2,3 °C
Regen0,0 mm
Stärkste Böe9,7 km/h

Messwerte vom 18.01.2024

286 gespeicherte Messwerte

Diagramm anzeigen
ZeitTemperaturFeuchteDruckWindBöeRichtungRegenUVHelligkeit
23:59-3,0 °C93 %1.000,0 hPa1,6 km/h4,7 km/h277°0,0 mm
23:54-2,9 °C93 %1.000,0 hPa1,1 km/h3,5 km/h258°0,0 mm
23:49-2,8 °C93 %1.000,0 hPa1,4 km/h4,7 km/h288°0,0 mm
23:44-2,8 °C93 %1.000,0 hPa1,5 km/h4,2 km/h276°0,0 mm
23:39-2,8 °C93 %1.000,0 hPa2,7 km/h6,8 km/h270°0,0 mm
23:34-2,8 °C93 %1.000,0 hPa1,5 km/h5,0 km/h288°0,0 mm
23:29-2,7 °C93 %1.000,0 hPa1,8 km/h5,3 km/h286°0,0 mm
23:24-2,6 °C93 %1.000,0 hPa1,9 km/h4,7 km/h296°0,0 mm
23:19-2,6 °C93 %1.000,0 hPa2,2 km/h5,6 km/h316°0,0 mm
23:14-2,6 °C93 %999,0 hPa2,1 km/h3,9 km/h305°0,0 mm
23:09-2,6 °C93 %999,0 hPa2,3 km/h3,9 km/h285°0,0 mm
23:04-2,6 °C93 %999,0 hPa3,1 km/h6,4 km/h301°0,0 mm
22:59-2,6 °C93 %999,0 hPa2,9 km/h8,5 km/h273°0,0 mm
22:54-2,6 °C93 %999,0 hPa2,7 km/h4,2 km/h306°0,0 mm
22:49-2,5 °C93 %999,0 hPa2,7 km/h8,2 km/h288°0,0 mm
22:44-2,5 °C93 %999,0 hPa3,8 km/h7,4 km/h283°0,0 mm
22:39-2,5 °C93 %999,0 hPa2,8 km/h6,4 km/h238°0,0 mm
22:34-2,5 °C93 %999,0 hPa2,9 km/h6,4 km/h291°0,0 mm
22:29-2,5 °C93 %998,0 hPa3,0 km/h6,4 km/h311°0,0 mm
22:24-2,5 °C93 %998,0 hPa3,3 km/h5,6 km/h298°0,0 mm
22:19-2,5 °C93 %998,0 hPa2,7 km/h7,4 km/h296°0,0 mm
22:14-2,5 °C93 %998,0 hPa3,4 km/h7,4 km/h303°0,0 mm
22:09-2,6 °C93 %998,0 hPa3,6 km/h6,4 km/h291°0,0 mm
22:04-2,6 °C93 %998,0 hPa3,6 km/h8,5 km/h321°0,0 mm
21:59-2,7 °C94 %998,0 hPa2,9 km/h6,4 km/h303°0,0 mm
21:54-2,8 °C94 %998,0 hPa2,2 km/h3,2 km/h301°0,0 mm
21:49-2,9 °C94 %998,0 hPa2,8 km/h6,8 km/h296°0,0 mm
21:44-2,9 °C94 %997,0 hPa3,0 km/h5,6 km/h281°0,0 mm
21:39-2,9 °C94 %997,0 hPa2,8 km/h6,8 km/h295°0,0 mm
21:34-2,9 °C94 %997,0 hPa2,6 km/h3,9 km/h297°0,0 mm
21:29-2,9 °C94 %997,0 hPa2,2 km/h5,3 km/h289°0,0 mm
21:24-3,0 °C94 %997,0 hPa2,7 km/h5,0 km/h280°0,0 mm
21:19-3,0 °C94 %997,0 hPa1,0 km/h3,9 km/h269°0,0 mm
21:14-3,0 °C94 %997,0 hPa2,4 km/h5,6 km/h309°0,0 mm
21:09-3,0 °C94 %997,0 hPa1,7 km/h3,9 km/h294°0,0 mm
21:04-3,1 °C94 %997,0 hPa2,3 km/h4,7 km/h307°0,0 mm
20:59-3,2 °C94 %997,0 hPa2,3 km/h5,6 km/h296°0,0 mm
20:54-3,2 °C94 %997,0 hPa2,1 km/h5,3 km/h293°0,0 mm
20:49-3,3 °C94 %997,0 hPa2,2 km/h3,9 km/h306°0,0 mm
20:44-3,3 °C94 %995,9 hPa2,0 km/h4,7 km/h291°0,0 mm
20:39-3,3 °C94 %995,9 hPa2,6 km/h7,4 km/h293°0,0 mm
20:34-3,3 °C94 %995,9 hPa2,8 km/h4,7 km/h294°0,0 mm
20:29-3,2 °C94 %995,9 hPa4,2 km/h9,7 km/h281°0,0 mm
20:24-3,2 °C94 %995,9 hPa2,9 km/h6,8 km/h304°0,0 mm
20:19-3,2 °C94 %995,9 hPa2,4 km/h4,7 km/h284°0,0 mm
20:14-3,1 °C94 %995,9 hPa3,1 km/h6,4 km/h286°0,0 mm
20:09-3,1 °C94 %995,9 hPa2,7 km/h6,4 km/h305°0,0 mm
20:04-3,2 °C94 %995,9 hPa2,6 km/h5,6 km/h284°0,0 mm
19:59-3,2 °C94 %994,9 hPa2,9 km/h7,4 km/h285°0,0 mm
19:54-3,2 °C94 %994,9 hPa1,7 km/h4,2 km/h301°0,0 mm
19:49-3,1 °C94 %994,9 hPa2,5 km/h5,6 km/h272°0,0 mm
19:44-3,1 °C94 %994,9 hPa2,2 km/h7,4 km/h272°0,0 mm
19:39-3,1 °C94 %994,9 hPa2,1 km/h5,3 km/h293°0,0 mm
19:34-3,1 °C94 %994,9 hPa2,0 km/h5,6 km/h291°0,0 mm
19:29-3,0 °C94 %993,9 hPa2,9 km/h6,4 km/h284°0,0 mm
19:24-2,9 °C94 %993,9 hPa2,4 km/h2,7 km/h284°0,0 mm
19:11-2,8 °C94 %993,9 hPa3,0 km/h8,5 km/h266°0,0 mm
19:09-2,7 °C94 %993,9 hPa3,5 km/h7,4 km/h298°0,0 mm
19:04-2,7 °C94 %993,9 hPa4,0 km/h8,9 km/h304°0,0 mm
18:59-2,7 °C94 %993,9 hPa1,9 km/h5,3 km/h311°0,0 mm
18:54-2,7 °C94 %993,9 hPa2,3 km/h5,6 km/h273°0,0 mm
18:49-2,6 °C94 %993,9 hPa1,3 km/h3,9 km/h296°0,0 mm
18:44-2,6 °C94 %993,9 hPa1,7 km/h3,5 km/h308°0,0 mm
18:39-2,6 °C94 %993,9 hPa2,3 km/h5,3 km/h323°0,0 mm
18:34-2,6 °C94 %993,9 hPa2,9 km/h5,6 km/h325°0,0 mm
18:29-2,6 °C94 %992,9 hPa2,7 km/h3,5 km/h322°0,0 mm
18:17-2,5 °C94 %992,9 hPa2,9 km/h6,8 km/h289°0,0 mm
18:14-2,5 °C94 %992,9 hPa1,6 km/h5,0 km/h308°0,0 mm
18:09-2,5 °C94 %992,9 hPa1,3 km/h2,7 km/h314°0,0 mm
18:04-2,5 °C95 %992,9 hPa2,0 km/h6,4 km/h306°0,0 mm
17:59-2,5 °C95 %991,9 hPa1,4 km/h5,6 km/h316°0,0 mm
17:54-2,5 °C95 %991,9 hPa1,2 km/h4,7 km/h300°0,0 mm
17:49-2,5 °C95 %991,9 hPa1,3 km/h3,5 km/h309°0,0 mm
17:44-2,6 °C95 %991,9 hPa0,8 km/h2,7 km/h320°0,0 mm
17:39-2,6 °C95 %991,9 hPa0,9 km/h2,7 km/h308°0,0 mm
17:34-2,6 °C95 %991,9 hPa1,1 km/h3,5 km/h307°0,0 mm
17:29-2,7 °C95 %991,9 hPa1,0 km/h3,9 km/h304°0,0 mm
17:24-2,7 °C94 %991,9 hPa1,4 km/h2,7 km/h317°0,0 mm
17:19-2,7 °C94 %991,9 hPa2,0 km/h3,9 km/h318°0,0 mm
17:14-2,7 °C94 %990,9 hPa1,9 km/h4,7 km/h305°0,0 mm
17:09-2,7 °C94 %990,9 hPa2,4 km/h6,1 km/h327°0,0 mm
17:04-2,7 °C94 %990,9 hPa1,5 km/h3,5 km/h315°0,0 mm
16:59-2,7 °C94 %990,9 hPa1,8 km/h3,5 km/h312°0,0 mm
16:54-2,6 °C94 %990,9 hPa1,9 km/h3,9 km/h317°0,0 mm
16:49-2,6 °C94 %990,9 hPa1,7 km/h3,9 km/h318°0,0 mm
16:44-2,6 °C94 %990,9 hPa1,4 km/h2,7 km/h322°0,0 mm
16:39-2,6 °C94 %990,9 hPa0,8 km/h2,1 km/h312°0,0 mm
16:34-2,6 °C94 %990,9 hPa0,3 km/h2,1 km/h309°0,0 mm
16:29-2,6 °C94 %990,9 hPa0,5 km/h2,1 km/h315°0,0 mm
16:24-2,5 °C94 %990,9 hPa0,1 km/h2,1 km/h315°0,0 mm
16:19-2,5 °C94 %990,9 hPa0,7 km/h4,2 km/h320°0,0 mm
16:14-2,5 °C94 %989,8 hPa0,8 km/h3,9 km/h307°0,0 mm
16:09-2,5 °C94 %989,8 hPa1,5 km/h5,3 km/h309°0,0 mm
16:04-2,5 °C94 %989,8 hPa1,0 km/h5,3 km/h328°0,0 mm
15:59-2,5 °C94 %989,8 hPa1,7 km/h6,8 km/h320°0,0 mm
15:54-2,5 °C94 %989,8 hPa2,0 km/h7,9 km/h319°0,0 mm
15:49-2,5 °C94 %989,8 hPa1,0 km/h2,7 km/h310°0,0 mm
15:44-2,5 °C94 %988,8 hPa1,8 km/h4,7 km/h311°0,0 mm
15:39-2,5 °C94 %988,8 hPa2,1 km/h7,4 km/h315°0,0 mm
15:34-2,5 °C94 %988,8 hPa0,4 km/h2,7 km/h302°0,0 mm
15:29-2,5 °C94 %988,8 hPa1,9 km/h3,9 km/h327°0,0 mm
15:24-2,5 °C94 %988,8 hPa1,2 km/h3,9 km/h295°0,0 mm
15:19-2,5 °C94 %988,8 hPa0,8 km/h2,7 km/h300°0,0 mm
15:14-2,5 °C93 %988,8 hPa1,7 km/h5,3 km/h312°0,0 mm
15:09-2,5 °C93 %988,8 hPa1,0 km/h2,1 km/h311°0,0 mm
15:04-2,4 °C93 %988,8 hPa2,0 km/h5,3 km/h317°0,0 mm
14:59-2,4 °C93 %987,8 hPa1,0 km/h3,9 km/h318°0,0 mm
14:54-2,5 °C94 %987,8 hPa0,0 km/h0,0 km/h292°0,0 mm
14:49-2,5 °C94 %987,8 hPa0,3 km/h2,1 km/h292°0,0 mm
14:44-2,6 °C93 %987,8 hPa0,6 km/h2,1 km/h305°0,0 mm
14:39-2,6 °C93 %987,8 hPa1,0 km/h3,9 km/h313°0,0 mm
14:34-2,6 °C93 %987,8 hPa1,7 km/h5,3 km/h315°0,0 mm
14:29-2,6 °C93 %987,8 hPa0,5 km/h2,7 km/h316°0,0 mm
14:24-2,6 °C93 %987,8 hPa1,9 km/h3,9 km/h314°0,0 mm
14:19-2,6 °C93 %987,8 hPa0,5 km/h4,7 km/h318°0,0 mm
14:14-2,6 °C93 %986,8 hPa0,5 km/h4,2 km/h320°0,0 mm
14:09-2,6 °C93 %986,8 hPa0,2 km/h2,4 km/h308°0,0 mm
14:04-2,6 °C93 %986,8 hPa0,3 km/h3,2 km/h315°0,0 mm
13:59-2,6 °C93 %987,8 hPa0,8 km/h2,7 km/h323°0,0 mm
13:54-2,6 °C93 %987,8 hPa0,5 km/h2,4 km/h314°0,0 mm
13:49-2,6 °C93 %987,8 hPa0,2 km/h3,2 km/h315°0,0 mm
13:44-2,6 °C93 %986,8 hPa0,4 km/h6,4 km/h329°0,0 mm
13:39-2,7 °C93 %986,8 hPa0,2 km/h1,8 km/h315°0,0 mm
13:34-2,8 °C92 %986,8 hPa0,3 km/h3,2 km/h308°0,0 mm
13:29-2,8 °C92 %986,8 hPa0,9 km/h3,2 km/h322°0,0 mm
13:24-2,7 °C92 %986,8 hPa1,5 km/h4,7 km/h312°0,0 mm
13:19-2,7 °C92 %986,8 hPa1,5 km/h2,7 km/h287°0,0 mm
13:14-2,7 °C92 %986,8 hPa0,4 km/h2,4 km/h293°0,0 mm
13:09-2,7 °C92 %986,8 hPa0,7 km/h3,5 km/h315°0,0 mm
13:04-2,6 °C92 %986,8 hPa0,5 km/h2,1 km/h315°0,0 mm
12:59-2,7 °C92 %986,8 hPa0,5 km/h2,1 km/h315°0,0 mm
12:54-2,7 °C92 %986,8 hPa0,7 km/h2,7 km/h307°0,0 mm
12:49-2,6 °C92 %986,8 hPa0,5 km/h3,5 km/h308°0,0 mm
12:44-2,6 °C92 %986,8 hPa0,4 km/h2,4 km/h293°0,0 mm
12:39-2,5 °C92 %986,8 hPa0,8 km/h3,5 km/h316°0,0 mm
12:34-2,4 °C92 %986,8 hPa0,0 km/h0,0 km/h315°0,0 mm
12:29-2,4 °C92 %986,8 hPa0,0 km/h0,0 km/h315°0,0 mm
12:24-2,4 °C92 %986,8 hPa0,5 km/h2,7 km/h328°0,0 mm
12:19-2,2 °C92 %986,8 hPa0,2 km/h2,1 km/h292°0,0 mm
12:14-2,3 °C92 %986,8 hPa0,0 km/h0,0 km/h315°0,0 mm
12:09-2,3 °C92 %986,8 hPa0,2 km/h2,4 km/h315°0,0 mm
12:04-2,2 °C91 %986,8 hPa0,5 km/h2,1 km/h315°0,0 mm
11:59-2,1 °C91 %986,8 hPa0,5 km/h2,4 km/h302°0,0 mm
11:54-2,2 °C91 %986,8 hPa0,0 km/h0,0 km/h315°0,0 mm
11:49-2,3 °C91 %986,8 hPa0,0 km/h0,0 km/h315°0,0 mm
11:44-2,3 °C91 %986,8 hPa0,0 km/h0,0 km/h315°0,0 mm
11:39-2,4 °C91 %986,8 hPa0,4 km/h2,7 km/h315°0,0 mm
11:34-2,4 °C91 %986,8 hPa0,0 km/h0,0 km/h315°0,0 mm
11:29-2,4 °C91 %986,8 hPa0,4 km/h2,7 km/h303°0,0 mm
11:24-2,5 °C91 %986,8 hPa0,0 km/h0,0 km/h315°0,0 mm
11:19-2,6 °C91 %986,8 hPa0,0 km/h0,0 km/h315°0,0 mm
11:14-2,6 °C91 %985,8 hPa0,2 km/h1,8 km/h315°0,0 mm
11:09-2,6 °C91 %985,8 hPa0,3 km/h2,1 km/h315°0,0 mm
11:04-2,7 °C90 %985,8 hPa0,0 km/h0,0 km/h315°0,0 mm
10:59-2,7 °C90 %985,8 hPa0,1 km/h1,8 km/h315°0,0 mm
10:54-2,7 °C89 %985,8 hPa0,0 km/h0,0 km/h315°0,0 mm
10:49-2,6 °C89 %985,8 hPa0,3 km/h2,4 km/h315°0,0 mm
10:44-2,5 °C89 %985,8 hPa0,7 km/h4,2 km/h320°0,0 mm
10:39-2,5 °C89 %985,8 hPa0,8 km/h3,5 km/h315°0,0 mm
10:34-2,5 °C89 %985,8 hPa0,6 km/h2,7 km/h327°0,0 mm
10:29-2,4 °C90 %985,8 hPa1,0 km/h3,2 km/h312°0,0 mm
10:24-2,4 °C91 %985,8 hPa1,2 km/h3,5 km/h321°0,0 mm
10:19-2,4 °C93 %985,8 hPa0,0 km/h0,0 km/h315°0,0 mm
10:14-2,5 °C92 %985,8 hPa0,0 km/h0,0 km/h292°0,0 mm
10:09-2,4 °C92 %985,8 hPa0,4 km/h2,1 km/h325°0,0 mm
10:04-2,4 °C93 %985,8 hPa0,7 km/h2,7 km/h292°0,0 mm
09:59-2,4 °C93 %985,8 hPa0,6 km/h2,4 km/h277°0,0 mm
09:54-2,5 °C93 %985,8 hPa0,5 km/h2,1 km/h284°0,0 mm
09:49-2,5 °C93 %985,8 hPa0,6 km/h2,4 km/h273°0,0 mm
09:44-2,4 °C93 %985,1 hPa1,0 km/h2,7 km/h270°0,0 mm
09:39-2,4 °C93 %985,1 hPa0,5 km/h2,7 km/h281°0,0 mm
09:34-2,4 °C93 %985,1 hPa0,0 km/h0,0 km/h292°0,0 mm
09:29-2,4 °C93 %985,1 hPa0,2 km/h2,4 km/h292°0,0 mm
09:24-2,4 °C93 %985,1 hPa0,1 km/h1,8 km/h338°0,0 mm
09:19-2,3 °C94 %985,1 hPa0,2 km/h2,7 km/h320°0,0 mm
09:14-2,3 °C94 %985,1 hPa0,4 km/h2,7 km/h323°0,0 mm
09:09-2,3 °C94 %985,1 hPa0,3 km/h2,7 km/h315°0,0 mm
09:04-2,4 °C94 %985,1 hPa0,0 km/h0,0 km/h315°0,0 mm
08:59-2,4 °C94 %985,1 hPa0,0 km/h0,0 km/h315°0,0 mm
08:54-2,5 °C94 %985,1 hPa0,0 km/h0,0 km/h315°0,0 mm
08:49-2,5 °C93 %985,1 hPa0,0 km/h0,0 km/h315°0,0 mm
08:44-2,5 °C93 %985,1 hPa0,0 km/h0,0 km/h315°0,0 mm
08:39-2,5 °C94 %985,1 hPa0,0 km/h0,0 km/h315°0,0 mm
08:34-2,5 °C94 %985,1 hPa0,0 km/h0,0 km/h315°0,0 mm
08:29-2,5 °C94 %985,1 hPa0,0 km/h0,0 km/h315°0,0 mm
08:24-2,5 °C94 %985,1 hPa0,0 km/h0,0 km/h315°0,0 mm
08:19-2,5 °C94 %985,1 hPa0,0 km/h0,0 km/h315°0,0 mm
08:14-2,5 °C94 %984,1 hPa0,0 km/h0,0 km/h315°0,0 mm
08:09-2,6 °C94 %984,1 hPa0,0 km/h0,0 km/h315°0,0 mm
08:04-2,6 °C94 %984,1 hPa0,0 km/h0,0 km/h315°0,0 mm
07:59-2,7 °C94 %984,1 hPa0,1 km/h1,8 km/h315°0,0 mm
07:54-2,7 °C94 %984,1 hPa0,0 km/h0,0 km/h315°0,0 mm
07:49-2,6 °C94 %984,1 hPa0,0 km/h0,0 km/h315°0,0 mm
07:44-2,6 °C94 %984,1 hPa0,0 km/h0,0 km/h315°0,0 mm
07:39-2,7 °C94 %984,1 hPa0,0 km/h0,0 km/h315°0,0 mm
07:34-2,7 °C94 %984,1 hPa0,0 km/h0,0 km/h315°0,0 mm
07:29-2,7 °C94 %984,1 hPa0,0 km/h0,0 km/h315°0,0 mm
07:24-2,6 °C94 %984,1 hPa0,0 km/h0,0 km/h315°0,0 mm
07:19-2,7 °C94 %984,1 hPa0,0 km/h0,0 km/h315°0,0 mm
07:14-2,7 °C94 %984,1 hPa0,0 km/h0,0 km/h315°0,0 mm
07:09-2,7 °C94 %984,1 hPa0,0 km/h0,0 km/h315°0,0 mm
07:04-2,7 °C94 %984,1 hPa0,0 km/h0,0 km/h315°0,0 mm
06:59-2,7 °C94 %984,1 hPa0,0 km/h0,0 km/h315°0,0 mm
06:54-2,7 °C94 %984,1 hPa0,3 km/h2,4 km/h315°0,0 mm
06:49-2,6 °C94 %984,1 hPa0,4 km/h3,2 km/h315°0,0 mm
06:44-2,6 °C94 %984,1 hPa0,2 km/h2,4 km/h315°0,0 mm
06:39-2,6 °C94 %984,1 hPa0,7 km/h3,5 km/h321°0,0 mm
06:34-2,6 °C94 %984,1 hPa0,6 km/h3,5 km/h323°0,0 mm
06:29-2,5 °C94 %984,1 hPa1,7 km/h5,3 km/h321°0,0 mm
06:24-2,5 °C94 %984,1 hPa2,2 km/h3,5 km/h320°0,0 mm
06:19-2,4 °C95 %984,1 hPa1,5 km/h3,5 km/h328°0,0 mm
06:14-2,4 °C95 %984,1 hPa1,3 km/h3,5 km/h323°0,0 mm
06:09-2,4 °C95 %984,1 hPa0,1 km/h1,8 km/h315°0,0 mm
06:04-2,5 °C95 %984,1 hPa0,0 km/h0,0 km/h292°0,0 mm
05:59-2,5 °C95 %984,1 hPa0,0 km/h0,0 km/h292°0,0 mm
05:54-2,5 °C95 %984,1 hPa0,0 km/h0,0 km/h292°0,0 mm
05:49-2,5 °C95 %984,1 hPa0,1 km/h1,8 km/h338°0,0 mm
05:44-2,5 °C95 %984,1 hPa0,0 km/h0,0 km/h338°0,0 mm
05:39-2,5 °C95 %984,1 hPa0,0 km/h0,0 km/h338°0,0 mm
05:34-2,6 °C94 %984,1 hPa0,0 km/h0,0 km/h338°0,0 mm
05:29-2,6 °C94 %983,1 hPa0,0 km/h0,0 km/h338°0,0 mm
05:24-2,6 °C94 %983,1 hPa0,5 km/h2,7 km/h319°0,0 mm
05:19-2,6 °C94 %983,1 hPa0,2 km/h2,1 km/h313°0,0 mm
05:14-2,6 °C94 %983,1 hPa0,5 km/h3,9 km/h321°0,0 mm
05:09-2,5 °C94 %983,1 hPa0,7 km/h3,5 km/h297°0,0 mm
05:04-2,5 °C94 %983,1 hPa2,0 km/h5,3 km/h310°0,0 mm
04:59-2,4 °C94 %983,1 hPa1,2 km/h4,2 km/h322°0,0 mm
04:54-2,4 °C94 %983,1 hPa0,6 km/h3,5 km/h311°0,0 mm
04:49-2,4 °C94 %983,1 hPa0,4 km/h2,7 km/h286°0,0 mm
04:44-2,3 °C94 %983,1 hPa0,8 km/h3,5 km/h294°0,0 mm
04:39-2,3 °C94 %983,1 hPa1,1 km/h2,7 km/h307°0,0 mm
04:34-2,3 °C94 %983,1 hPa1,0 km/h3,9 km/h302°0,0 mm
04:29-2,2 °C94 %983,1 hPa0,9 km/h3,9 km/h307°0,0 mm
04:24-2,1 °C94 %983,1 hPa1,0 km/h3,2 km/h280°0,0 mm
04:19-2,0 °C95 %983,1 hPa0,6 km/h3,9 km/h306°0,0 mm
04:14-1,9 °C95 %983,1 hPa1,5 km/h5,0 km/h316°0,0 mm
04:09-1,8 °C95 %983,1 hPa0,3 km/h2,7 km/h274°0,0 mm
04:04-1,8 °C95 %983,1 hPa0,8 km/h3,2 km/h304°0,0 mm
03:59-1,7 °C95 %982,1 hPa0,8 km/h2,4 km/h299°0,0 mm
03:54-1,7 °C95 %982,1 hPa0,8 km/h2,7 km/h299°0,0 mm
03:49-1,7 °C95 %982,1 hPa1,7 km/h5,3 km/h315°0,0 mm
03:44-1,6 °C95 %982,1 hPa0,7 km/h3,2 km/h304°0,0 mm
03:39-1,6 °C95 %982,1 hPa1,5 km/h3,5 km/h320°0,0 mm
03:34-1,5 °C95 %982,1 hPa0,7 km/h2,4 km/h313°0,0 mm
03:29-1,5 °C95 %982,1 hPa2,0 km/h3,9 km/h318°0,0 mm
03:24-1,4 °C95 %982,1 hPa1,7 km/h7,4 km/h316°0,0 mm
03:19-1,4 °C95 %982,1 hPa1,9 km/h5,6 km/h316°0,0 mm
03:14-1,4 °C95 %982,1 hPa2,0 km/h8,2 km/h317°0,0 mm
03:09-1,4 °C95 %982,1 hPa1,4 km/h3,9 km/h313°0,0 mm
03:04-1,3 °C95 %982,1 hPa2,0 km/h3,9 km/h321°0,0 mm
02:59-1,3 °C95 %982,1 hPa1,8 km/h4,2 km/h309°0,0 mm
02:54-1,3 °C95 %982,1 hPa1,2 km/h3,9 km/h330°0,0 mm
02:49-1,2 °C95 %982,1 hPa2,0 km/h3,9 km/h329°0,0 mm
02:44-1,2 °C95 %981,0 hPa2,6 km/h7,9 km/h331°0,0 mm
02:39-1,1 °C95 %981,0 hPa1,7 km/h4,2 km/h330°0,0 mm
02:34-1,1 °C95 %981,0 hPa0,3 km/h2,7 km/h338°0,0 mm
02:29-1,1 °C95 %981,0 hPa0,9 km/h3,5 km/h309°0,0 mm
02:24-1,1 °C95 %981,0 hPa1,6 km/h5,3 km/h311°0,0 mm
02:19-1,0 °C95 %981,0 hPa1,6 km/h5,3 km/h304°0,0 mm
02:14-1,0 °C95 %981,0 hPa2,0 km/h4,2 km/h317°0,0 mm
02:09-0,9 °C95 %981,0 hPa2,5 km/h8,5 km/h334°0,0 mm
02:04-0,9 °C95 %981,0 hPa1,8 km/h5,3 km/h312°0,0 mm
01:59-0,8 °C95 %980,0 hPa1,4 km/h5,6 km/h323°0,0 mm
01:54-0,7 °C95 %980,0 hPa2,7 km/h5,3 km/h315°0,0 mm
01:49-0,6 °C95 %980,0 hPa1,5 km/h6,8 km/h320°0,0 mm
01:44-0,5 °C95 %980,0 hPa2,0 km/h5,0 km/h322°0,0 mm
01:39-0,5 °C95 %980,0 hPa1,3 km/h5,6 km/h322°0,0 mm
01:34-0,5 °C95 %980,0 hPa0,7 km/h2,7 km/h315°0,0 mm
01:29-0,4 °C95 %980,0 hPa1,2 km/h3,9 km/h313°0,0 mm
01:24-0,2 °C95 %980,0 hPa2,6 km/h5,6 km/h318°0,0 mm
01:19-0,1 °C96 %980,0 hPa2,1 km/h7,4 km/h315°0,0 mm
01:140,0 °C96 %980,0 hPa1,9 km/h3,9 km/h315°0,0 mm
01:090,1 °C96 %980,0 hPa1,5 km/h5,3 km/h322°0,0 mm
01:040,2 °C96 %980,0 hPa2,0 km/h5,3 km/h330°0,0 mm
00:590,3 °C96 %980,0 hPa2,5 km/h7,9 km/h322°0,0 mm
00:540,3 °C96 %980,0 hPa2,7 km/h7,9 km/h334°0,0 mm
00:490,3 °C96 %980,0 hPa1,3 km/h2,7 km/h325°0,0 mm
00:440,4 °C96 %980,0 hPa1,1 km/h3,2 km/h318°0,0 mm
00:390,3 °C96 %980,0 hPa2,2 km/h6,4 km/h320°0,0 mm
00:340,3 °C96 %980,0 hPa1,6 km/h4,2 km/h305°0,0 mm
00:290,3 °C96 %979,0 hPa0,9 km/h3,5 km/h324°0,0 mm
00:240,3 °C96 %979,0 hPa1,8 km/h3,5 km/h325°0,0 mm
00:190,3 °C96 %979,0 hPa1,8 km/h3,9 km/h321°0,0 mm
00:140,3 °C96 %979,0 hPa1,7 km/h3,2 km/h323°0,0 mm
00:090,3 °C96 %979,0 hPa1,5 km/h2,7 km/h323°0,0 mm
00:040,3 °C96 %979,0 hPa1,4 km/h2,7 km/h297°0,0 mm